Aviation Digital Data Service (ADDS)

Output produced by METARs form (1905 UTC 18 June 2019)
found at http://www.aviationweather.gov/metar/data/
 
ELLX 181850Z 18003KT 150V210 CAVOK 25/14 Q1013 NOSIG
TAF ELLX 181700Z 1818/1924 15005KT CAVOK 
     BECMG 1818/1820 VRB02KT 
     BECMG 1906/1909 21010KT 
     TEMPO 1914/1920 27015G35KT 2000 TSRA BKN025CB 
     TEMPO 1920/1924 4000 SHRA BKN030CB